Airfield :







YOU CAN JOIN US ON...

 
LOGIN :

Register | Disclaimer

   EN    FR    IT 

 









Legend :    VFR   Marginal VFR   IFR   Intensive IFR   Very Intensive IFR
Visi :
Ceiling :
>= 8 km
>= 3000ft
5 to 8 km
1000 to 3000 ft
1500m to 5 km
500 to 1000 ft
800 to 1500m
200 to 500 ft
< 800m
< 200 ft
Symbols :   Thunderstorms  Fog  Heavy snow  Heavy precipitations  Wind > 20 kt






- Airport Elevation : 39 ft
- IATA code : YNA


CYNA - Natashquan

CURRENT METAR :
  • 171300Z AUTO 29011KT 9SM FEW020 SCT028 BKN034 M04/M09 A2990 RMK SLP128

EXPIRED METARs :
  • 171236Z AUTO 28011G16KT 9SM SCT018 BKN027 BKN230 M03/M07 A2989 RMK PRESRR SLP125
  • 171200Z AUTO 24011KT 9SM FEW019 M03/M05 A2986 RMK SLP115
  • 171100Z AUTO 26009KT 9SM BKN100 M03/M05 A2985 RMK SLP112

TAF TAF CYNA
Valid from the 17 at 14:00 until the 18 at 02:00 UTC


171338Z 1714/1802 29010KT P6SM SCT020 BKN030
TEMPO 1714/1715 5SM -SHSN BKN020 OVC030
FM171500 29010KT P6SM BKN080
BECMG 1716/1718 35010KT RMK FCST BASED ON AUTO OBS. NXT FCST BY 172000Z



MET'MAP, your aeronautical weather chart ! - Copyright ORBIFLY December 2007 - Disclaimer

ORBIFLY MET'MAP TEAM :

Programming & Development : Alexandra Zaïnal
Concept & original design : Baudouin d'Aumeries
Assistance for programming : Marc-Olivier Méhu
Technical & hardware support : Manuel Goepfert

Contact : metmap@orbifly.com




SOURCES & CREDITS :

   NOAA